Dandong, China
Current Conditions -  °F | °C
As of 8:00 AM on Saturday 29 Nov 2014 (Local Time) from ZYTX Reporting Station
Haze Haze  
Wind Chill: 19°   Ceiling: Unl
Heat Index: 25°   Visibility: 1.5mi
Dew Point: 21°   Wind: 4mph
Humidity: 86%   Direction: 50°NE
Pressure: 30.18"   Gusts: NA
Location:  40.13°N, 124.4°E
Report Text: ZYTX 290000Z 05002MPS 2500 BR NSC M04/M06 Q1022 BECMGTL01303000 BR
Loading
Personal Weather Stations






























Interactive Weather Map New forecast layout! Learn more

10-Day Weather Forecast

Advertisements
Track Severe Weather on mobile